Colfax, WI

8:38 AM CDT on October 23, 2014 (GMT -0500)
Menomonie | Change Station
CLOSE
Current Station
Airport
Location: Menomonie,
Elevation: 896 ft
Nearby Weather Stations

Elev 896 ft 44.89 °N, 91.87 °W | Updated 23 minutes ago

Rain
Rain
48 °F
Feels Like 48 °F
N
5
Wind Variable Wind from SE

Today
High -- | Low -- °F
--% Chance of Precip.
Yesterday
High -- | Low -- °F
Precip. -- in
7:33 AM 6:08 PM
Waning Crescent, 0% visible
Pressure 30.02 in
Visibility 5.0 miles
Clouds Mostly Cloudy 600 ft
Overcast 1100 ft
Dew Point 48 °F
Humidity 97%
Rainfall 0.04 in
Snow Depth Not available.
UV 0 out of 12
Pollen .10 out of 12
Air Quality Not available.
Flu Activity Sporadic
METAR KLUM 231315Z AUTO 13004KT 5SM -DZ BKN006 OVC011 09/09 A3002 RMK AO2 T00910086

More Conditions Fewer Conditions

Pressure 30.02 in
Visibility 5.0 miles
Clouds Mostly Cloudy 600 ft
Overcast 1100 ft
Dew Point 48 °F
Humidity 97%
Rainfall 0.04 in
Snow Depth Not available.
UV 0 out of 12
Pollen .10 out of 12
Air Quality Not available.
Flu Activity Sporadic
METAR KLUM 231315Z AUTO 13004KT 5SM -DZ BKN006 OVC011 09/09 A3002 RMK AO2 T00910086

More Conditions Fewer Conditions

10-Day Weather Forecast

Almanac

Astronomy

Oct. 23, 2014 Rise Set
Actual Time 7:33 AM CDT 6:08 PM CDT
Civil Twilight 7:03 AM CDT 6:38 PM CDT
Nautical Twilight 6:28 AM CDT 7:12 PM CDT
Astronomical Twilight 5:54 AM CDT 7:46 PM CDT
Moon 7:12 AM CDT 6:10 PM CDT
Length of Visible Light 11h 35m
Length of Day
10h 35m
Tomorrow will be 2m 56s shorter.
Waning Crescent, 0% of the Moon is Illuminated
Today
Waning Crescent
Oct 23
New
Oct 30
First Quarter
Nov 6
Full
Nov 14
Last Quarter

Today's Extremes

State Highs State Lows

Community

WunderPhotos

Upload Photos

1,764,238 photos uploaded!

Nearby

Snow Depth

Station Depth Elevation
No new snow has been reported.

Earthquake Activity

City Distance Mag. Time & Date
No recent earthquake activity has been reported nearby.
Minimum magnitude displayed is 2.5.

Coastal Water Temperatures

Place Temperature
No Stations Reporting

Nearby Weather Stations